createdAt,value
2022-11-30T00:01:54.334Z,86.41
2022-11-30T00:04:40.042Z,86.15
2022-11-30T00:07:26.128Z,85.97
2022-11-30T00:10:14.457Z,86.12
2022-11-30T00:13:00.396Z,86.03
2022-11-30T00:15:45.962Z,86.41
2022-11-30T00:18:31.247Z,85.89
2022-11-30T00:21:17.100Z,86.16
2022-11-30T00:24:04.695Z,86.02
2022-11-30T00:26:49.984Z,85.94
2022-11-30T00:29:35.396Z,86.27
2022-11-30T00:32:20.804Z,85.73
2022-11-30T00:35:06.602Z,86.11
2022-11-30T00:37:52.787Z,86.30
2022-11-30T00:40:38.408Z,85.92
2022-11-30T00:43:24.048Z,85.92
2022-11-30T00:46:10.403Z,86.09
2022-11-30T00:48:56.034Z,86.10
2022-11-30T00:51:41.539Z,86.28
2022-11-30T00:54:27.002Z,86.21
2022-11-30T00:57:12.858Z,86.23
2022-11-30T00:59:58.095Z,85.94
2022-11-30T01:02:43.766Z,86.11
2022-11-30T01:05:29.784Z,86.06
2022-11-30T01:08:16.243Z,85.85
2022-11-30T01:11:15.100Z,86.17
2022-11-30T01:14:01.019Z,86.14
2022-11-30T01:16:49.701Z,86.14
2022-11-30T01:19:37.810Z,85.92
2022-11-30T01:22:23.337Z,85.79
2022-11-30T01:25:09.397Z,86.05
2022-11-30T01:27:54.859Z,86.10
2022-11-30T01:30:40.341Z,85.73
2022-11-30T01:33:26.459Z,85.53
2022-11-30T01:36:17.874Z,85.88
2022-11-30T01:39:08.005Z,85.57
2022-11-30T01:41:55.235Z,85.71
2022-11-30T01:44:54.763Z,85.64
2022-11-30T01:47:53.615Z,85.52
2022-11-30T01:50:39.166Z,85.95
2022-11-30T01:53:24.983Z,85.58
2022-11-30T01:56:10.851Z,85.75
2022-11-30T01:58:56.426Z,85.69
2022-11-30T02:01:41.943Z,85.80
2022-11-30T02:04:34.764Z,85.71
2022-11-30T02:07:20.435Z,85.48
2022-11-30T02:10:06.880Z,85.66
2022-11-30T02:13:07.643Z,85.64
2022-11-30T02:16:01.035Z,85.41
2022-11-30T02:19:03.672Z,85.26
2022-11-30T02:21:56.615Z,85.95
2022-11-30T02:25:17.698Z,85.27
2022-11-30T02:28:21.301Z,85.59
2022-11-30T02:31:11.665Z,85.80
2022-11-30T02:33:58.752Z,85.60
2022-11-30T02:36:46.281Z,85.20
2022-11-30T02:39:31.604Z,85.36
2022-11-30T02:42:17.109Z,85.87
2022-11-30T02:45:02.885Z,85.34
2022-11-30T02:48:11.369Z,85.59
2022-11-30T02:51:02.536Z,85.54
2022-11-30T02:53:48.837Z,85.54
2022-11-30T02:56:34.914Z,85.94
2022-11-30T02:59:20.882Z,85.49
2022-11-30T03:02:06.581Z,85.84
2022-11-30T03:04:52.293Z,85.63
2022-11-30T03:07:37.940Z,85.70
2022-11-30T03:10:23.680Z,85.57
2022-11-30T03:13:09.077Z,85.48
2022-11-30T03:15:54.659Z,85.41
2022-11-30T03:18:40.962Z,85.51
2022-11-30T03:21:26.440Z,85.36
2022-11-30T03:24:12.273Z,85.49
2022-11-30T03:26:58.133Z,85.36
2022-11-30T03:29:43.355Z,85.46
2022-11-30T03:32:30.654Z,85.72
2022-11-30T03:35:15.812Z,85.37
2022-11-30T03:38:01.395Z,85.44
2022-11-30T03:40:46.784Z,85.42
2022-11-30T03:43:32.633Z,85.72
2022-11-30T03:46:18.243Z,85.64
2022-11-30T03:49:03.914Z,85.74
2022-11-30T03:51:48.918Z,85.53
2022-11-30T03:54:34.556Z,85.43
2022-11-30T03:57:19.970Z,85.80
2022-11-30T04:00:06.995Z,85.69
2022-11-30T04:02:57.454Z,85.87
2022-11-30T04:05:43.363Z,85.50
2022-11-30T04:08:30.358Z,85.47
2022-11-30T04:11:16.587Z,85.73
2022-11-30T04:14:02.263Z,85.97
2022-11-30T04:16:47.584Z,85.55
2022-11-30T04:19:33.012Z,85.59
2022-11-30T04:22:18.382Z,85.56
2022-11-30T04:25:04.046Z,85.60
2022-11-30T04:27:52.962Z,85.66
2022-11-30T04:30:38.476Z,85.43
2022-11-30T04:33:24.426Z,85.82
2022-11-30T04:36:19.237Z,85.38
2022-11-30T04:39:04.793Z,85.97
2022-11-30T04:41:50.324Z,86.06
2022-11-30T04:44:35.786Z,85.83
2022-11-30T04:47:21.258Z,85.72
2022-11-30T04:50:07.699Z,85.86
2022-11-30T04:52:53.431Z,85.71
2022-11-30T04:55:39.365Z,85.59
2022-11-30T04:58:25.207Z,85.55
2022-11-30T05:01:10.815Z,85.72
2022-11-30T05:03:59.972Z,85.29
2022-11-30T05:06:45.379Z,85.15
2022-11-30T05:09:30.858Z,85.34
2022-11-30T05:12:16.372Z,85.50
2022-11-30T05:15:01.923Z,85.45
2022-11-30T05:17:48.286Z,85.24
2022-11-30T05:20:33.904Z,85.71
2022-11-30T05:23:20.291Z,85.63
2022-11-30T05:26:05.699Z,85.26
2022-11-30T05:28:51.087Z,85.70
2022-11-30T05:31:38.836Z,85.34
2022-11-30T05:34:24.377Z,85.55
2022-11-30T05:37:10.126Z,85.12
2022-11-30T05:39:55.652Z,85.23
2022-11-30T05:42:41.399Z,85.48
2022-11-30T05:45:27.756Z,85.21
2022-11-30T05:48:13.107Z,85.21
2022-11-30T05:51:11.821Z,85.59
2022-11-30T05:53:58.698Z,85.43
2022-11-30T05:56:44.330Z,85.63
2022-11-30T05:59:29.898Z,85.34
2022-11-30T06:02:15.442Z,85.39
2022-11-30T06:05:01.326Z,85.44
2022-11-30T06:07:47.117Z,85.53
2022-11-30T06:10:32.756Z,85.24
2022-11-30T06:13:19.096Z,85.22
2022-11-30T06:16:05.761Z,85.10
2022-11-30T06:18:52.587Z,85.28
2022-11-30T06:21:37.994Z,85.25
2022-11-30T06:24:23.532Z,85.03
2022-11-30T06:27:09.123Z,85.52
2022-11-30T06:29:54.955Z,85.35
2022-11-30T06:32:40.421Z,85.18
2022-11-30T06:35:26.462Z,85.13
2022-11-30T06:38:12.250Z,84.83
2022-11-30T06:41:07.546Z,85.00
2022-11-30T06:43:53.081Z,85.01
2022-11-30T06:46:38.445Z,85.15
2022-11-30T06:49:23.845Z,85.05
2022-11-30T06:52:09.400Z,85.03
2022-11-30T06:54:55.030Z,84.92
2022-11-30T06:57:40.600Z,84.68
2022-11-30T07:00:25.945Z,84.96
2022-11-30T07:03:12.092Z,84.66
2022-11-30T07:05:57.473Z,84.93
2022-11-30T07:08:44.026Z,85.11
2022-11-30T07:11:29.169Z,84.71
2022-11-30T07:14:15.047Z,84.90
2022-11-30T07:17:04.612Z,84.82
2022-11-30T07:19:50.299Z,84.54
2022-11-30T07:22:35.599Z,85.04
2022-11-30T07:25:39.713Z,84.64
2022-11-30T07:28:24.884Z,84.75
2022-11-30T07:31:43.898Z,84.71
2022-11-30T07:34:29.057Z,84.82
2022-11-30T07:37:14.815Z,84.51
2022-11-30T07:40:00.244Z,84.62
2022-11-30T07:42:46.122Z,84.32
2022-11-30T07:45:31.608Z,84.89
2022-11-30T07:48:16.878Z,84.34
2022-11-30T07:51:17.547Z,84.75
2022-11-30T07:54:03.670Z,84.57
2022-11-30T07:56:49.295Z,84.88
2022-11-30T07:59:34.861Z,84.25
2022-11-30T08:02:20.631Z,84.58
2022-11-30T08:05:06.894Z,84.55
2022-11-30T08:07:54.134Z,84.36
2022-11-30T08:10:39.558Z,84.15
2022-11-30T08:13:25.439Z,84.33
2022-11-30T08:16:13.590Z,84.02
2022-11-30T08:18:59.030Z,84.19
2022-11-30T08:21:44.648Z,83.94
2022-11-30T08:24:32.863Z,84.18
2022-11-30T08:27:18.247Z,83.93
2022-11-30T08:30:04.614Z,84.39
2022-11-30T08:32:50.505Z,84.16
2022-11-30T08:35:36.193Z,84.02
2022-11-30T08:38:21.926Z,84.08
2022-11-30T08:41:08.829Z,84.17
2022-11-30T08:43:54.641Z,84.05
2022-11-30T08:46:51.454Z,84.32
2022-11-30T08:49:38.809Z,84.11
2022-11-30T08:52:24.976Z,83.81
2022-11-30T08:55:10.630Z,83.99
2022-11-30T08:57:56.355Z,84.08
2022-11-30T09:00:42.132Z,84.05
2022-11-30T09:03:27.389Z,84.07
2022-11-30T09:06:18.879Z,84.39
2022-11-30T09:09:04.411Z,83.86
2022-11-30T09:11:50.453Z,83.82
2022-11-30T09:14:36.440Z,84.21
2022-11-30T09:17:22.119Z,84.24
2022-11-30T09:20:08.166Z,83.88
2022-11-30T09:22:54.000Z,83.95
2022-11-30T09:25:39.134Z,83.97
2022-11-30T09:28:25.101Z,83.84
2022-11-30T09:31:19.182Z,83.96
2022-11-30T09:34:04.990Z,84.22
2022-11-30T09:36:50.306Z,84.16
2022-11-30T09:39:35.908Z,83.83
2022-11-30T09:42:43.879Z,83.72
2022-11-30T09:45:32.083Z,83.58
2022-11-30T09:48:40.771Z,83.69
2022-11-30T09:51:47.850Z,84.04
2022-11-30T09:54:44.338Z,83.32
2022-11-30T09:57:30.180Z,83.90
2022-11-30T10:00:22.163Z,83.44
2022-11-30T10:03:07.724Z,83.68
2022-11-30T10:06:08.847Z,83.58
2022-11-30T10:09:33.498Z,83.68
2022-11-30T10:12:29.171Z,83.47
2022-11-30T10:15:24.034Z,83.85
2022-11-30T10:18:38.504Z,83.80
2022-11-30T10:21:43.921Z,83.22
2022-11-30T10:25:02.104Z,83.33
2022-11-30T10:27:51.114Z,83.54
2022-11-30T10:30:36.897Z,83.05
2022-11-30T10:33:37.024Z,83.11
2022-11-30T10:36:33.842Z,83.19
2022-11-30T10:39:29.756Z,83.47
2022-11-30T10:42:24.570Z,83.42
2022-11-30T10:45:17.826Z,83.14
2022-11-30T10:48:15.199Z,82.97
2022-11-30T10:51:02.518Z,82.93
2022-11-30T10:53:48.140Z,83.14
2022-11-30T10:56:33.961Z,82.84
2022-11-30T10:59:34.519Z,82.99
2022-11-30T11:02:39.193Z,83.08
2022-11-30T11:05:26.206Z,83.04
2022-11-30T11:08:24.807Z,83.14
2022-11-30T11:11:45.872Z,83.32
2022-11-30T11:14:37.485Z,83.44
2022-11-30T11:17:26.475Z,83.07
2022-11-30T11:20:36.951Z,82.81
2022-11-30T11:23:32.675Z,83.12
2022-11-30T11:26:23.505Z,83.13
2022-11-30T11:29:33.053Z,83.01
2022-11-30T11:32:27.650Z,83.20
2022-11-30T11:35:33.984Z,83.24
2022-11-30T11:38:29.689Z,83.25
2022-11-30T11:41:34.975Z,82.77
2022-11-30T11:44:22.945Z,83.46
2022-11-30T11:47:25.580Z,82.84
2022-11-30T11:50:49.917Z,82.74
2022-11-30T11:53:47.325Z,83.09
2022-11-30T11:56:37.477Z,82.84
2022-11-30T11:59:47.735Z,82.82
2022-11-30T12:02:47.204Z,83.22
2022-11-30T12:05:51.633Z,82.78
2022-11-30T12:08:58.911Z,82.62
2022-11-30T12:11:47.541Z,83.06
2022-11-30T12:14:35.441Z,82.76
2022-11-30T12:17:49.759Z,82.28
2022-11-30T12:20:56.589Z,82.26
2022-11-30T12:24:25.280Z,83.00
2022-11-30T12:27:30.874Z,82.40
2022-11-30T12:30:29.399Z,82.94
2022-11-30T12:34:04.595Z,82.75
2022-11-30T12:37:18.332Z,82.38
2022-11-30T12:40:29.337Z,82.72
2022-11-30T12:43:15.048Z,82.79
2022-11-30T12:46:22.830Z,82.23
2022-11-30T12:49:14.556Z,82.91
2022-11-30T12:52:00.009Z,82.85
2022-11-30T12:55:05.643Z,82.76
2022-11-30T12:58:13.146Z,82.64
2022-11-30T13:01:23.666Z,82.10
2022-11-30T13:04:19.675Z,82.37
2022-11-30T13:07:15.660Z,82.53
2022-11-30T13:10:27.298Z,82.77
2022-11-30T13:13:17.146Z,82.44
2022-11-30T13:16:06.184Z,82.52
2022-11-30T13:18:56.024Z,82.74
2022-11-30T13:21:47.904Z,81.97
2022-11-30T13:24:41.518Z,82.33
2022-11-30T13:27:45.022Z,82.54
2022-11-30T13:30:58.069Z,82.34
2022-11-30T13:33:51.984Z,82.32
2022-11-30T13:36:45.206Z,82.72
2022-11-30T13:39:37.761Z,82.81
2022-11-30T13:42:26.516Z,82.67
2022-11-30T13:45:11.979Z,82.68
2022-11-30T13:47:58.871Z,82.41
2022-11-30T13:50:48.020Z,82.78
2022-11-30T13:53:39.119Z,82.83
2022-11-30T13:56:34.162Z,82.55
2022-11-30T13:59:23.439Z,82.82
2022-11-30T14:02:42.078Z,82.91
2022-11-30T14:05:39.941Z,83.02
2022-11-30T14:08:37.681Z,82.57
2022-11-30T14:11:39.409Z,82.72
2022-11-30T14:14:46.211Z,82.91
2022-11-30T14:17:35.630Z,82.67
2022-11-30T14:20:24.641Z,82.76
2022-11-30T14:23:21.806Z,82.94
2022-11-30T14:26:11.308Z,82.50
2022-11-30T14:29:07.555Z,82.45
2022-11-30T14:32:07.460Z,82.80
2022-11-30T14:35:03.269Z,82.54
2022-11-30T14:37:57.749Z,82.09
2022-11-30T14:40:51.620Z,82.70
2022-11-30T14:43:37.304Z,82.52
2022-11-30T14:46:24.918Z,83.01
2022-11-30T14:49:30.943Z,82.42
2022-11-30T14:52:37.788Z,82.63
2022-11-30T14:55:45.783Z,82.31
2022-11-30T14:58:37.483Z,82.44
2022-11-30T15:01:28.816Z,82.70
2022-11-30T15:04:17.496Z,82.23
2022-11-30T15:07:03.336Z,82.68
2022-11-30T15:09:52.017Z,82.56
2022-11-30T15:12:40.652Z,82.53
2022-11-30T15:15:31.448Z,82.15
2022-11-30T15:18:19.502Z,82.53
2022-11-30T15:21:17.379Z,82.48
2022-11-30T15:24:03.210Z,82.48
2022-11-30T15:26:51.618Z,82.66
2022-11-30T15:29:46.134Z,82.22
2022-11-30T15:32:32.054Z,82.44
2022-11-30T15:35:20.351Z,82.31
2022-11-30T15:38:09.122Z,82.71
2022-11-30T15:41:03.597Z,82.37
2022-11-30T15:43:52.604Z,82.66
2022-11-30T15:46:46.380Z,82.62
2022-11-30T15:49:34.115Z,82.41
2022-11-30T15:52:20.582Z,82.64
2022-11-30T15:55:06.980Z,82.61
2022-11-30T15:58:00.485Z,82.61
2022-11-30T16:00:59.362Z,82.36
2022-11-30T16:04:03.580Z,82.40
2022-11-30T16:06:49.294Z,82.74
2022-11-30T16:09:36.051Z,82.24
2022-11-30T16:12:32.060Z,82.44
2022-11-30T16:15:30.815Z,82.45
2022-11-30T16:18:22.271Z,82.48
2022-11-30T16:21:12.790Z,82.69
2022-11-30T16:23:58.451Z,82.41
2022-11-30T16:26:51.133Z,82.53
2022-11-30T16:29:37.324Z,82.46
2022-11-30T16:32:22.831Z,82.51
2022-11-30T16:35:16.899Z,82.71
2022-11-30T16:38:02.946Z,82.44
2022-11-30T16:40:48.632Z,82.68
2022-11-30T16:43:33.804Z,82.98
2022-11-30T16:46:24.640Z,82.70
2022-11-30T16:49:09.900Z,83.09
2022-11-30T16:51:55.334Z,82.80
2022-11-30T16:54:40.857Z,82.94
2022-11-30T16:57:26.377Z,82.87
2022-11-30T17:00:14.570Z,82.85
2022-11-30T17:03:08.302Z,82.67
2022-11-30T17:05:54.079Z,82.93
2022-11-30T17:08:39.535Z,82.76
2022-11-30T17:11:37.170Z,82.98
2022-11-30T17:14:22.476Z,82.92
2022-11-30T17:17:08.351Z,82.68
2022-11-30T17:19:53.785Z,83.21
2022-11-30T17:22:40.111Z,83.04
2022-11-30T17:25:25.698Z,83.12
2022-11-30T17:28:11.101Z,83.12
2022-11-30T17:30:56.648Z,83.04
2022-11-30T17:33:47.914Z,82.80
2022-11-30T17:36:34.500Z,82.58
2022-11-30T17:39:19.999Z,83.04
2022-11-30T17:42:05.659Z,83.19
2022-11-30T17:44:51.167Z,82.87
2022-11-30T17:47:37.203Z,82.87
2022-11-30T17:50:22.784Z,83.07
2022-11-30T17:53:08.146Z,83.27
2022-11-30T17:56:11.772Z,83.32
2022-11-30T17:58:59.515Z,83.07
2022-11-30T18:01:44.857Z,82.89
2022-11-30T18:04:31.227Z,83.22
2022-11-30T18:07:17.149Z,83.08
2022-11-30T18:10:02.715Z,83.43
2022-11-30T18:12:48.198Z,83.07
2022-11-30T18:15:33.819Z,82.91
2022-11-30T18:18:19.538Z,83.17
2022-11-30T18:21:09.758Z,82.88
2022-11-30T18:23:56.962Z,83.12
2022-11-30T18:26:42.031Z,82.94
2022-11-30T18:29:28.049Z,82.94
2022-11-30T18:32:13.596Z,82.86
2022-11-30T18:34:58.970Z,83.20
2022-11-30T18:37:44.769Z,83.19
2022-11-30T18:40:30.430Z,83.52
2022-11-30T18:43:16.292Z,83.47
2022-11-30T18:46:06.078Z,83.04
2022-11-30T18:48:53.128Z,83.11
2022-11-30T18:51:38.951Z,83.18
2022-11-30T18:54:25.491Z,82.85
2022-11-30T18:57:11.528Z,83.18
2022-11-30T18:59:57.600Z,83.26
2022-11-30T19:02:48.017Z,83.19
2022-11-30T19:05:38.639Z,83.16
2022-11-30T19:08:24.388Z,83.16
2022-11-30T19:11:10.838Z,83.50
2022-11-30T19:13:58.496Z,83.09
2022-11-30T19:16:44.834Z,83.61
2022-11-30T19:19:30.760Z,83.08
2022-11-30T19:22:16.698Z,83.29
2022-11-30T19:25:02.557Z,83.38
2022-11-30T19:27:47.880Z,83.17
2022-11-30T19:30:33.607Z,83.42
2022-11-30T19:33:19.279Z,83.47
2022-11-30T19:36:07.087Z,83.30
2022-11-30T19:38:52.785Z,83.59
2022-11-30T19:41:38.085Z,83.65
2022-11-30T19:44:23.414Z,83.41
2022-11-30T19:47:09.548Z,83.48
2022-11-30T19:49:54.872Z,83.57
2022-11-30T19:52:40.358Z,83.68
2022-11-30T19:55:25.890Z,83.63
2022-11-30T19:58:11.354Z,83.84
2022-11-30T20:00:56.608Z,83.92
2022-11-30T20:03:42.506Z,83.41
2022-11-30T20:06:36.162Z,83.65
2022-11-30T20:09:21.943Z,83.75
2022-11-30T20:12:07.324Z,83.26
2022-11-30T20:14:53.132Z,83.55
2022-11-30T20:17:38.985Z,83.91
2022-11-30T20:20:25.016Z,83.32
2022-11-30T20:23:10.612Z,83.41
2022-11-30T20:25:56.237Z,83.63
2022-11-30T20:28:41.999Z,83.39
2022-11-30T20:31:29.452Z,83.64
2022-11-30T20:34:15.772Z,83.38
2022-11-30T20:37:01.233Z,83.43
2022-11-30T20:39:46.838Z,83.88
2022-11-30T20:42:32.554Z,83.57
2022-11-30T20:45:18.191Z,84.15
2022-11-30T20:48:03.801Z,84.26
2022-11-30T20:51:14.043Z,84.14
2022-11-30T20:53:55.204Z,83.81
2022-11-30T20:56:42.160Z,84.18
2022-11-30T20:59:27.919Z,83.88
2022-11-30T21:02:13.794Z,83.95
2022-11-30T21:04:59.242Z,83.91
2022-11-30T21:07:49.153Z,84.27
2022-11-30T21:10:38.935Z,83.88
2022-11-30T21:13:23.915Z,84.35
2022-11-30T21:16:10.107Z,83.99
2022-11-30T21:18:56.896Z,84.24
2022-11-30T21:21:42.061Z,84.24
2022-11-30T21:24:27.742Z,84.21
2022-11-30T21:27:13.426Z,84.24
2022-11-30T21:29:58.828Z,84.55
2022-11-30T21:32:44.258Z,84.61
2022-11-30T21:35:29.875Z,84.15
2022-11-30T21:38:15.452Z,84.61
2022-11-30T21:41:02.085Z,84.60
2022-11-30T21:43:47.407Z,84.17
2022-11-30T21:46:33.060Z,84.27
2022-11-30T21:49:19.184Z,84.55
2022-11-30T21:52:04.570Z,84.29
2022-11-30T21:54:53.550Z,84.22
2022-11-30T21:57:39.493Z,84.22
2022-11-30T22:00:25.332Z,84.31
2022-11-30T22:03:12.906Z,84.68
2022-11-30T22:06:09.790Z,84.42
2022-11-30T22:09:03.388Z,84.34
2022-11-30T22:11:49.425Z,84.73
2022-11-30T22:14:36.381Z,84.80
2022-11-30T22:17:21.768Z,84.49
2022-11-30T22:20:07.983Z,84.12
2022-11-30T22:22:53.515Z,84.57
2022-11-30T22:25:39.028Z,84.18
2022-11-30T22:28:24.793Z,84.51
2022-11-30T22:31:12.253Z,84.66
2022-11-30T22:33:59.122Z,84.33
2022-11-30T22:36:45.325Z,84.31
2022-11-30T22:39:30.623Z,84.77
2022-11-30T22:42:15.842Z,84.66
2022-11-30T22:45:01.383Z,84.74
2022-11-30T22:47:47.007Z,84.66
2022-11-30T22:50:34.111Z,84.80
2022-11-30T22:53:19.864Z,84.53
2022-11-30T22:56:08.772Z,84.33
2022-11-30T22:58:56.675Z,84.43
2022-11-30T23:01:43.605Z,84.29
2022-11-30T23:04:29.543Z,84.59
2022-11-30T23:07:15.539Z,84.98
2022-11-30T23:10:01.022Z,84.59
2022-11-30T23:13:01.958Z,84.49
2022-11-30T23:15:49.625Z,84.68
2022-11-30T23:18:46.437Z,84.34
2022-11-30T23:21:40.541Z,84.93
2022-11-30T23:24:26.696Z,84.40
2022-11-30T23:27:12.486Z,84.78
2022-11-30T23:29:58.522Z,84.38
2022-11-30T23:32:43.908Z,84.59
2022-11-30T23:35:29.475Z,84.74
2022-11-30T23:38:14.984Z,84.76
2022-11-30T23:41:08.695Z,84.02
2022-11-30T23:43:54.634Z,84.43
2022-11-30T23:46:40.289Z,84.82
2022-11-30T23:49:25.577Z,84.75
2022-11-30T23:52:11.022Z,84.32
2022-11-30T23:54:56.618Z,84.65
2022-11-30T23:57:42.183Z,84.36
